createdAt,value
2022-09-04T00:02:51.245Z,100333.44
2022-09-04T00:05:23.705Z,100327.88
2022-09-04T00:08:15.550Z,100332.88
2022-09-04T00:11:20.286Z,100333.84
2022-09-04T00:13:56.768Z,100335.78
2022-09-04T00:16:34.124Z,100336.00
2022-09-04T00:19:14.148Z,100340.28
2022-09-04T00:21:58.458Z,100342.34
2022-09-04T00:24:32.266Z,100328.41
2022-09-04T00:27:13.864Z,100338.88
2022-09-04T00:29:48.989Z,100348.13
2022-09-04T00:32:41.286Z,100345.13
2022-09-04T00:35:21.168Z,100348.78
2022-09-04T00:37:59.047Z,100352.75
2022-09-04T00:40:33.092Z,100334.94
2022-09-04T00:43:26.730Z,100357.50
2022-09-04T00:46:37.451Z,100353.75
2022-09-04T00:49:03.838Z,100370.00
2022-09-04T00:51:43.784Z,100373.66
2022-09-04T00:54:19.106Z,100370.00
2022-09-04T00:57:14.017Z,100369.16
2022-09-04T01:00:20.190Z,100372.91
2022-09-04T01:03:35.034Z,100374.91
2022-09-04T01:06:08.090Z,100383.31
2022-09-04T01:08:49.679Z,100397.13
2022-09-04T01:11:56.610Z,100382.66
2022-09-04T01:14:41.771Z,100381.31
2022-09-04T01:17:10.965Z,100376.69
2022-09-04T01:20:07.009Z,100385.66
2022-09-04T01:22:45.043Z,100395.53
2022-09-04T01:25:32.934Z,100392.94
2022-09-04T01:28:05.974Z,100398.53
2022-09-04T01:30:44.016Z,100404.13
2022-09-04T01:33:30.873Z,100396.84
2022-09-04T01:36:17.356Z,100397.56
2022-09-04T01:38:53.752Z,100403.28
2022-09-04T01:41:27.960Z,100395.56
2022-09-04T01:43:54.995Z,100406.50
2022-09-04T01:46:38.976Z,100409.91
2022-09-04T01:49:19.305Z,100412.50
2022-09-04T01:51:51.973Z,100414.84
2022-09-04T01:54:49.039Z,100410.50
2022-09-04T01:57:59.111Z,100408.34
2022-09-04T02:00:32.808Z,100393.81
2022-09-04T02:03:22.326Z,100403.31
2022-09-04T02:06:22.241Z,100410.91
2022-09-04T02:09:34.076Z,100413.44
2022-09-04T02:12:42.780Z,100408.34
2022-09-04T02:15:37.812Z,100416.25
2022-09-04T02:18:23.178Z,100416.47
2022-09-04T02:21:05.611Z,100401.34
2022-09-04T02:23:38.636Z,100426.34
2022-09-04T02:26:20.416Z,100429.13
2022-09-04T02:28:47.534Z,100431.78
2022-09-04T02:31:30.783Z,100428.47
2022-09-04T02:34:13.268Z,100424.31
2022-09-04T02:36:58.593Z,100425.66
2022-09-04T02:39:25.119Z,100427.56
2022-09-04T02:41:54.579Z,100425.13
2022-09-04T02:44:33.363Z,100426.84
2022-09-04T02:47:29.189Z,100435.81
2022-09-04T02:50:07.520Z,100423.41
2022-09-04T02:53:03.286Z,100428.13
2022-09-04T02:55:57.410Z,100428.13
2022-09-04T02:58:44.127Z,100431.66
2022-09-04T03:01:31.219Z,100430.69
2022-09-04T03:04:24.674Z,100409.22
2022-09-04T03:06:57.250Z,100431.84
2022-09-04T03:09:28.225Z,100440.25
2022-09-04T03:12:03.858Z,100442.72
2022-09-04T03:14:40.682Z,100439.19
2022-09-04T03:17:20.990Z,100430.19
2022-09-04T03:20:00.515Z,100420.94
2022-09-04T03:22:31.197Z,100435.84
2022-09-04T03:25:07.363Z,100418.84
2022-09-04T03:27:34.697Z,100424.72
2022-09-04T03:30:12.805Z,100428.41
2022-09-04T03:33:08.872Z,100443.97
2022-09-04T03:35:47.623Z,100449.84
2022-09-04T03:39:02.792Z,100453.00
2022-09-04T03:45:02.654Z,100445.94
2022-09-04T03:47:37.273Z,100442.50
2022-09-04T03:50:18.433Z,100445.63
2022-09-04T03:53:10.549Z,100437.72
2022-09-04T03:56:07.301Z,100445.88
2022-09-04T03:58:45.771Z,100428.97
2022-09-04T04:01:40.337Z,100449.16
2022-09-04T04:04:06.846Z,100432.06
2022-09-04T04:07:01.704Z,100453.09
2022-09-04T04:09:42.551Z,100452.75
2022-09-04T04:12:13.159Z,100457.38
2022-09-04T04:14:46.177Z,100461.16
2022-09-04T04:17:50.651Z,100460.41
2022-09-04T04:20:36.765Z,100460.50
2022-09-04T04:23:24.795Z,100458.16
2022-09-04T04:26:10.890Z,100461.03
2022-09-04T04:28:59.931Z,100446.13
2022-09-04T04:31:42.022Z,100447.72
2022-09-04T04:34:33.665Z,100471.75
2022-09-04T04:37:10.719Z,100475.84
2022-09-04T04:39:49.352Z,100450.69
2022-09-04T04:42:22.941Z,100489.53
2022-09-04T04:45:18.298Z,100487.56
2022-09-04T04:48:09.461Z,100499.38
2022-09-04T04:50:44.051Z,100497.16
2022-09-04T04:53:49.167Z,100505.31
2022-09-04T04:56:26.421Z,100506.50
2022-09-04T04:59:20.421Z,100514.19
2022-09-04T05:02:19.299Z,100519.66
2022-09-04T05:05:07.425Z,100503.50
2022-09-04T05:08:08.081Z,100505.97
2022-09-04T05:10:41.035Z,100525.75
2022-09-04T05:13:26.798Z,100530.47
2022-09-04T05:16:18.069Z,100530.81
2022-09-04T05:19:11.143Z,100532.75
2022-09-04T05:21:47.488Z,100540.44
2022-09-04T05:24:32.521Z,100546.22
2022-09-04T05:27:10.006Z,100553.56
2022-09-04T05:29:55.368Z,100549.69
2022-09-04T05:32:37.471Z,100560.81
2022-09-04T05:35:41.585Z,100564.13
2022-09-04T05:38:26.159Z,100548.72
2022-09-04T05:40:58.655Z,100574.59
2022-09-04T05:43:52.734Z,100571.69
2022-09-04T05:46:40.424Z,100575.34
2022-09-04T05:49:18.455Z,100582.94
2022-09-04T05:51:50.722Z,100555.72
2022-09-04T05:54:41.601Z,100579.09
2022-09-04T05:57:16.726Z,100591.91
2022-09-04T06:00:06.671Z,100576.66
2022-09-04T06:03:10.424Z,100587.78
2022-09-04T06:05:59.047Z,100566.19
2022-09-04T06:08:38.520Z,100572.16
2022-09-04T06:11:20.193Z,100571.69
2022-09-04T06:14:15.880Z,100599.06
2022-09-04T06:16:57.248Z,100600.03
2022-09-04T06:19:53.396Z,100591.66
2022-09-04T06:22:48.556Z,100607.97
2022-09-04T06:25:49.238Z,100621.03
2022-09-04T06:28:37.934Z,100617.06
2022-09-04T06:31:20.500Z,100616.44
2022-09-04T06:33:49.801Z,100626.50
2022-09-04T06:36:51.591Z,100626.47
2022-09-04T06:39:43.355Z,100620.13
2022-09-04T06:42:31.581Z,100623.84
2022-09-04T06:45:01.145Z,100633.38
2022-09-04T06:47:49.606Z,100641.41
2022-09-04T06:50:22.879Z,100637.34
2022-09-04T06:53:18.274Z,100648.91
2022-09-04T06:55:47.756Z,100646.06
2022-09-04T06:58:26.958Z,100634.69
2022-09-04T07:01:02.683Z,100618.41
2022-09-04T07:03:54.014Z,100642.25
2022-09-04T07:06:21.476Z,100630.69
2022-09-04T07:08:59.877Z,100654.16
2022-09-04T07:11:59.219Z,100629.28
2022-09-04T07:14:54.099Z,100656.94
2022-09-04T07:17:29.586Z,100660.13
2022-09-04T07:20:20.024Z,100659.41
2022-09-04T07:22:58.003Z,100666.75
2022-09-04T07:25:30.580Z,100669.94
2022-09-04T07:28:34.133Z,100682.38
2022-09-04T07:31:09.074Z,100682.50
2022-09-04T07:33:46.075Z,100682.38
2022-09-04T07:36:44.601Z,100686.00
2022-09-04T07:39:22.358Z,100666.44
2022-09-04T07:42:24.076Z,100687.97
2022-09-04T07:45:00.716Z,100693.38
2022-09-04T07:47:36.097Z,100695.22
2022-09-04T07:50:17.743Z,100693.63
2022-09-04T07:53:04.225Z,100692.53
2022-09-04T07:55:46.936Z,100671.69
2022-09-04T07:58:41.382Z,100693.28
2022-09-04T08:01:19.804Z,100672.66
2022-09-04T08:03:54.548Z,100700.47
2022-09-04T08:06:24.334Z,100707.09
2022-09-04T08:09:15.828Z,100710.97
2022-09-04T08:11:52.570Z,100716.84
2022-09-04T08:14:54.947Z,100718.69
2022-09-04T08:17:27.521Z,100726.53
2022-09-04T08:19:56.907Z,100728.22
2022-09-04T08:23:01.931Z,100735.72
2022-09-04T08:25:43.054Z,100714.94
2022-09-04T08:28:33.350Z,100732.50
2022-09-04T08:31:25.447Z,100734.53
2022-09-04T08:34:29.307Z,100737.59
2022-09-04T08:37:07.677Z,100737.19
2022-09-04T08:39:43.105Z,100739.22
2022-09-04T08:42:44.960Z,100730.94
2022-09-04T08:45:29.836Z,100750.31
2022-09-04T08:48:25.725Z,100727.09
2022-09-04T08:51:07.483Z,100756.00
2022-09-04T08:53:47.347Z,100750.47
2022-09-04T08:56:45.081Z,100749.44
2022-09-04T08:59:33.317Z,100746.66
2022-09-04T09:02:26.333Z,100747.13
2022-09-04T09:05:01.980Z,100731.75
2022-09-04T09:07:49.133Z,100753.00
2022-09-04T09:11:03.317Z,100748.50
2022-09-04T09:13:51.741Z,100748.63
2022-09-04T09:16:42.868Z,100756.28
2022-09-04T09:19:22.699Z,100738.72
2022-09-04T09:22:04.388Z,100749.16
2022-09-04T09:24:51.734Z,100760.28
2022-09-04T09:27:47.613Z,100752.66
2022-09-04T09:30:20.928Z,100745.38
2022-09-04T09:33:23.349Z,100759.34
2022-09-04T09:36:08.761Z,100747.97
2022-09-04T09:38:37.906Z,100754.72
2022-09-04T09:41:33.500Z,100728.25
2022-09-04T09:44:22.900Z,100743.59
2022-09-04T09:47:18.358Z,100741.38
2022-09-04T09:49:47.792Z,100736.38
2022-09-04T09:52:34.716Z,100741.09
2022-09-04T09:55:45.624Z,100734.47
2022-09-04T09:58:32.730Z,100722.88
2022-09-04T10:01:00.362Z,100739.16
2022-09-04T10:03:39.693Z,100740.59
2022-09-04T10:06:24.131Z,100737.56
2022-09-04T10:09:05.919Z,100742.94
2022-09-04T10:11:53.717Z,100739.94
2022-09-04T10:14:38.894Z,100737.44
2022-09-04T10:17:33.637Z,100737.88
2022-09-04T10:20:21.632Z,100745.75
2022-09-04T10:23:04.078Z,100731.38
2022-09-04T10:25:55.507Z,100730.09
2022-09-04T10:28:40.796Z,100711.16
2022-09-04T10:31:10.428Z,100712.19
2022-09-04T10:34:13.280Z,100714.75
2022-09-04T10:37:02.082Z,100731.53
2022-09-04T10:40:26.162Z,100726.31
2022-09-04T10:43:17.224Z,100727.16
2022-09-04T10:46:13.717Z,100733.16
2022-09-04T10:49:18.255Z,100725.81
2022-09-04T10:52:17.170Z,100724.53
2022-09-04T10:55:05.544Z,100725.00
2022-09-04T10:58:10.587Z,100727.44
2022-09-04T11:00:52.290Z,100696.00
2022-09-04T11:03:58.383Z,100725.28
2022-09-04T11:06:52.819Z,100720.63
2022-09-04T11:09:43.482Z,100730.28
2022-09-04T11:12:16.119Z,100729.28
2022-09-04T11:15:26.536Z,100726.59
2022-09-04T11:18:06.202Z,100715.38
2022-09-04T11:20:57.111Z,100713.38
2022-09-04T11:23:39.108Z,100712.22
2022-09-04T11:26:13.947Z,100712.47
2022-09-04T11:29:12.785Z,100708.56
2022-09-04T11:32:00.094Z,100709.72
2022-09-04T11:35:13.903Z,100710.28
2022-09-04T11:37:46.492Z,100689.06
2022-09-04T11:40:28.993Z,100700.13
2022-09-04T11:43:30.261Z,100696.69
2022-09-04T11:46:15.172Z,100704.81
2022-09-04T11:49:09.751Z,100692.84
2022-09-04T11:52:04.087Z,100699.03
2022-09-04T11:55:04.526Z,100677.03
2022-09-04T11:57:58.875Z,100699.03
2022-09-04T12:00:27.820Z,100692.03
2022-09-04T12:03:34.324Z,100695.72
2022-09-04T12:06:28.657Z,100691.63
2022-09-04T12:09:13.956Z,100689.00
2022-09-04T12:12:17.215Z,100693.66
2022-09-04T12:15:12.430Z,100695.47
2022-09-04T12:18:16.170Z,100686.59
2022-09-04T12:21:02.672Z,100691.63
2022-09-04T12:23:47.899Z,100690.66
2022-09-04T12:26:26.638Z,100676.84
2022-09-04T12:29:19.953Z,100669.44
2022-09-04T12:32:29.244Z,100675.09
2022-09-04T12:35:32.019Z,100690.84
2022-09-04T12:38:21.364Z,100692.25
2022-09-04T12:41:01.499Z,100680.38
2022-09-04T12:43:31.357Z,100688.94
2022-09-04T12:46:36.570Z,100692.69
2022-09-04T12:49:26.285Z,100692.81
2022-09-04T12:52:04.947Z,100685.50
2022-09-04T12:54:51.991Z,100693.38
2022-09-04T12:57:45.601Z,100672.13
2022-09-04T13:00:17.543Z,100680.75
2022-09-04T13:03:20.142Z,100679.91
2022-09-04T13:06:04.243Z,100685.91
2022-09-04T13:09:21.164Z,100689.75
2022-09-04T13:12:10.577Z,100667.88
2022-09-04T13:14:38.328Z,100683.44
2022-09-04T13:17:33.894Z,100662.75
2022-09-04T13:20:09.902Z,100666.50
2022-09-04T13:22:46.367Z,100691.28
2022-09-04T13:25:31.426Z,100692.97
2022-09-04T13:28:19.247Z,100687.53
2022-09-04T13:31:01.313Z,100683.56
2022-09-04T13:33:58.597Z,100680.38
2022-09-04T13:36:40.018Z,100698.88
2022-09-04T13:39:21.652Z,100687.69
2022-09-04T13:42:13.340Z,100690.41
2022-09-04T13:44:56.896Z,100671.06
2022-09-04T13:47:32.055Z,100671.06
2022-09-04T13:50:12.052Z,100673.81
2022-09-04T13:52:45.792Z,100673.81
2022-09-04T13:55:39.964Z,100668.16
2022-09-04T13:58:13.880Z,100670.44
2022-09-04T14:00:57.074Z,100653.41
2022-09-04T14:03:42.070Z,100675.31
2022-09-04T14:06:13.040Z,100675.34
2022-09-04T14:08:39.905Z,100655.59
2022-09-04T14:11:44.490Z,100670.75
2022-09-04T14:14:30.838Z,100677.19
2022-09-04T14:17:00.116Z,100673.13
2022-09-04T14:19:43.455Z,100659.03
2022-09-04T14:22:52.321Z,100677.19
2022-09-04T14:25:53.452Z,100673.81
2022-09-04T14:28:53.994Z,100675.47
2022-09-04T14:31:40.401Z,100677.16
2022-09-04T14:34:41.100Z,100669.19
2022-09-04T14:37:08.116Z,100673.13
2022-09-04T14:40:03.608Z,100655.44
2022-09-04T14:42:41.617Z,100655.97
2022-09-04T14:45:32.320Z,100673.97
2022-09-04T14:48:07.764Z,100668.00
2022-09-04T14:50:48.091Z,100674.13
2022-09-04T14:53:23.150Z,100674.84
2022-09-04T14:56:12.815Z,100673.63
2022-09-04T14:58:56.457Z,100664.63
2022-09-04T15:01:25.023Z,100673.78
2022-09-04T15:04:06.746Z,100672.75
2022-09-04T15:07:09.846Z,100655.81
2022-09-04T15:09:45.735Z,100650.53
2022-09-04T15:12:36.086Z,100665.16
2022-09-04T15:15:40.997Z,100674.28
2022-09-04T15:18:45.362Z,100676.00
2022-09-04T15:21:22.410Z,100663.41
2022-09-04T15:24:00.163Z,100678.22
2022-09-04T15:26:35.640Z,100667.16
2022-09-04T15:29:22.956Z,100646.94
2022-09-04T15:31:59.843Z,100670.38
2022-09-04T15:34:27.661Z,100653.41
2022-09-04T15:36:54.675Z,100674.81
2022-09-04T15:39:31.261Z,100665.97
2022-09-04T15:42:00.014Z,100664.25
2022-09-04T15:44:39.425Z,100666.97
2022-09-04T15:47:36.500Z,100672.78
2022-09-04T15:50:20.988Z,100671.00
2022-09-04T15:53:12.981Z,100664.53
2022-09-04T15:55:44.421Z,100646.34
2022-09-04T15:58:30.256Z,100661.97
2022-09-04T16:01:06.177Z,100670.97
2022-09-04T16:03:40.248Z,100666.72
2022-09-04T16:06:19.391Z,100654.66
2022-09-04T16:09:04.439Z,100657.19
2022-09-04T16:11:45.052Z,100651.09
2022-09-04T16:14:16.886Z,100664.16
2022-09-04T16:16:48.672Z,100655.13
2022-09-04T16:19:33.676Z,100664.69
2022-09-04T16:22:18.773Z,100659.25
2022-09-04T16:24:48.229Z,100665.66
2022-09-04T16:27:22.735Z,100659.38
2022-09-04T16:30:05.020Z,100656.13
2022-09-04T16:32:35.267Z,100658.84
2022-09-04T16:35:06.764Z,100659.00
2022-09-04T16:37:52.842Z,100652.72
2022-09-04T16:40:45.518Z,100653.91
2022-09-04T16:43:15.351Z,100660.03
2022-09-04T16:46:07.803Z,100655.94
2022-09-04T16:49:02.298Z,100661.53
2022-09-04T16:51:39.656Z,100651.19
2022-09-04T16:54:28.906Z,100660.00
2022-09-04T16:57:12.059Z,100661.34
2022-09-04T16:59:55.712Z,100652.50
2022-09-04T17:02:35.863Z,100658.00
2022-09-04T17:05:10.475Z,100662.84
2022-09-04T17:07:44.769Z,100643.63
2022-09-04T17:10:26.344Z,100667.53
2022-09-04T17:13:27.740Z,100653.78
2022-09-04T17:16:14.043Z,100663.72
2022-09-04T17:18:47.161Z,100652.28
2022-09-04T17:25:43.321Z,100635.66
2022-09-04T17:29:02.473Z,100651.78
2022-09-04T17:29:15.424Z,100651.69
2022-09-04T17:30:49.867Z,100647.06
2022-09-04T17:40:06.238Z,100649.53
2022-09-04T17:40:47.897Z,100650.56
2022-09-04T17:40:55.435Z,100646.53
2022-09-04T17:42:29.751Z,100659.81
2022-09-04T17:45:08.989Z,100647.09
2022-09-04T17:47:43.718Z,100652.97
2022-09-04T17:50:16.466Z,100654.41
2022-09-04T17:53:12.080Z,100659.47
2022-09-04T17:55:48.054Z,100649.00
2022-09-04T17:59:15.384Z,100658.50
2022-09-04T18:01:50.974Z,100653.59
2022-09-04T18:04:35.697Z,100665.28
2022-09-04T18:07:28.676Z,100648.31
2022-09-04T18:10:17.330Z,100671.34
2022-09-04T18:13:01.416Z,100644.75
2022-09-04T18:15:49.066Z,100673.00
2022-09-04T18:18:41.513Z,100679.75
2022-09-04T18:21:31.844Z,100683.19
2022-09-04T18:24:10.195Z,100622.75
2022-09-04T18:26:47.015Z,100685.25
2022-09-04T18:35:34.846Z,100688.22
2022-09-04T18:37:07.185Z,100697.88
2022-09-04T18:37:16.159Z,100696.94
2022-09-04T18:39:24.265Z,100697.50
2022-09-04T18:46:28.739Z,100703.38
2022-09-04T18:50:22.543Z,100701.53
2022-09-04T18:50:38.247Z,100703.13
2022-09-04T18:53:48.555Z,100707.56
2022-09-04T18:56:55.457Z,100708.53
2022-09-04T18:59:29.992Z,100690.47
2022-09-04T19:02:05.795Z,100710.94
2022-09-04T19:07:57.367Z,100716.47
2022-09-04T19:10:37.055Z,100705.50
2022-09-04T19:13:10.109Z,100707.75
2022-09-04T19:15:50.336Z,100707.88
2022-09-04T19:18:33.654Z,100720.53
2022-09-04T19:21:57.648Z,100712.97
2022-09-04T19:24:34.346Z,100725.59
2022-09-04T19:27:05.903Z,100718.31
2022-09-04T19:30:03.200Z,100715.72
2022-09-04T19:32:59.875Z,100725.22
2022-09-04T19:35:32.267Z,100734.47
2022-09-04T19:40:30.186Z,100726.19
2022-09-04T19:46:12.322Z,100735.94
2022-09-04T19:46:19.314Z,100737.09
2022-09-04T19:46:51.706Z,100728.91
2022-09-04T19:53:19.676Z,100744.41
2022-09-04T19:53:34.661Z,100745.91
2022-09-04T19:55:45.676Z,100743.88
2022-09-04T19:58:20.315Z,100741.72
2022-09-04T20:00:59.445Z,100722.34
2022-09-04T20:03:37.867Z,100738.38
2022-09-04T20:06:21.550Z,100751.84
2022-09-04T20:09:11.130Z,100733.41
2022-09-04T20:11:47.692Z,100754.41
2022-09-04T20:14:46.995Z,100747.59
2022-09-04T20:17:41.668Z,100736.75
2022-09-04T20:20:45.058Z,100736.31
2022-09-04T20:23:43.854Z,100741.69
2022-09-04T20:26:17.854Z,100756.00
2022-09-04T20:28:56.961Z,100728.91
2022-09-04T20:31:36.834Z,100743.56
2022-09-04T20:34:15.944Z,100740.13
2022-09-04T20:36:49.757Z,100722.88
2022-09-04T20:39:26.800Z,100730.94
2022-09-04T20:42:06.544Z,100751.81
2022-09-04T20:45:20.359Z,100746.91
2022-09-04T20:52:46.283Z,100753.56
2022-09-04T20:52:57.193Z,100732.47
2022-09-04T20:53:29.387Z,100750.88
2022-09-04T20:55:58.752Z,100750.88
2022-09-04T21:02:37.891Z,100751.16
2022-09-04T21:03:24.845Z,100750.56
2022-09-04T21:04:42.097Z,100749.19
2022-09-04T21:07:19.541Z,100753.25
2022-09-04T21:10:25.750Z,100750.56
2022-09-04T21:13:13.285Z,100752.63
2022-09-04T21:16:11.712Z,100756.66
2022-09-04T21:18:45.919Z,100736.28
2022-09-04T21:22:01.204Z,100762.41
2022-09-04T21:24:33.380Z,100770.75
2022-09-04T21:27:12.473Z,100747.53
2022-09-04T21:29:59.361Z,100766.09
2022-09-04T21:32:43.924Z,100762.22
2022-09-04T21:35:19.992Z,100761.84
2022-09-04T21:38:09.369Z,100752.06
2022-09-04T21:41:01.699Z,100775.75
2022-09-04T21:43:55.376Z,100759.41
2022-09-04T21:46:43.980Z,100762.81
2022-09-04T21:49:31.702Z,100791.50
2022-09-04T21:52:10.080Z,100774.78
2022-09-04T22:01:04.790Z,100771.59
2022-09-04T22:02:40.459Z,100779.28
2022-09-04T22:02:45.030Z,100791.63
2022-09-04T22:04:15.277Z,100803.97
2022-09-04T22:08:15.115Z,100794.44
2022-09-04T22:13:33.384Z,100801.66
2022-09-04T22:13:43.376Z,100799.31
2022-09-04T22:16:07.514Z,100796.25
2022-09-04T22:18:47.560Z,100786.91
2022-09-04T22:21:26.707Z,100799.47
2022-09-04T22:24:39.717Z,100803.03
2022-09-04T22:27:35.935Z,100809.38
2022-09-04T22:30:21.122Z,100804.09
2022-09-04T22:33:08.954Z,100808.09
2022-09-04T22:36:13.304Z,100814.53
2022-09-04T22:39:00.450Z,100800.31
2022-09-04T22:41:51.783Z,100787.53
2022-09-04T22:44:56.355Z,100812.75
2022-09-04T22:47:54.569Z,100809.69
2022-09-04T22:50:29.044Z,100789.75
2022-09-04T22:53:35.770Z,100813.53
2022-09-04T22:56:24.293Z,100810.56
2022-09-04T22:59:38.884Z,100811.75
2022-09-04T23:02:17.213Z,100791.84
2022-09-04T23:04:52.735Z,100806.75
2022-09-04T23:12:28.523Z,100813.28
2022-09-04T23:13:50.443Z,100815.47
2022-09-04T23:14:31.131Z,100825.44
2022-09-04T23:17:32.533Z,100817.72
2022-09-04T23:26:36.319Z,100820.00
2022-09-04T23:26:57.961Z,100823.66
2022-09-04T23:27:28.446Z,100828.25
2022-09-04T23:30:13.899Z,100823.22
2022-09-04T23:32:55.127Z,100819.91
2022-09-04T23:35:36.877Z,100832.53
2022-09-04T23:38:22.119Z,100815.41
2022-09-04T23:41:07.509Z,100835.78
2022-09-04T23:44:04.782Z,100832.00
2022-09-04T23:46:54.901Z,100824.63
2022-09-04T23:49:40.361Z,100836.19
2022-09-04T23:52:31.222Z,100807.31
2022-09-04T23:55:49.138Z,100839.66
2022-09-04T23:59:06.266Z,100840.50
